Time;durP1;ratioP1;P1;durP2;ratioP2;P2;SDS_P1;SDS_P2;PMS_P1;PMS_P2;Temp;Humidity;BMP_temperature;BMP_pressure;BME280_temperature;BME280_humidity;BME280_pressure;Samples;Min_cycle;Max_cycle;Signal;HPM_P1;HPM_P2
2023/06/23 00:00:34;;;;;;;0.00;0.00;;;19.10;99.90;;;;;;7382184;19;20157;-73
2023/06/23 00:03:03;;;;;;;0.00;0.00;;;19.10;99.90;;;;;;7379107;19;20187;-73
2023/06/23 00:05:32;;;;;;;0.00;0.00;;;19.10;99.90;;;;;;7381886;19;20157;-72
2023/06/23 00:08:00;;;;;;;0.00;0.00;;;19.10;99.90;;;;;;7381839;19;20186;-72
2023/06/23 00:10:29;;;;;;;0.00;0.00;;;19.10;99.90;;;;;;7382234;19;20182;-73
2023/06/23 00:13:02;;;;;;;0.00;0.00;;;19.10;99.90;;;;;;7369065;19;20184;-72
2023/06/23 00:15:31;;;;;;;0.00;0.00;;;19.10;99.90;;;;;;7378944;19;20148;-73
2023/06/23 00:18:00;;;;;;;0.00;0.00;;;19.10;99.90;;;;;;7379808;19;20176;-73
2023/06/23 00:20:29;;;;;;;0.00;0.00;;;19.20;99.90;;;;;;7379021;19;20161;-72
2023/06/23 00:22:58;;;;;;;0.00;0.00;;;19.10;99.90;;;;;;7377375;19;20200;-72
2023/06/23 00:25:27;;;;;;;0.00;0.00;;;19.10;99.90;;;;;;7381298;19;20176;-73
2023/06/23 00:27:56;;;;;;;0.00;0.00;;;19.20;99.90;;;;;;7382161;19;20156;-72
2023/06/23 00:30:27;;;;;;;0.00;0.00;;;19.10;99.90;;;;;;7380278;19;20177;-74
2023/06/23 00:32:56;;;;;;;0.00;0.00;;;19.10;99.90;;;;;;7377070;19;20180;-73
2023/06/23 00:35:25;;;;;;;0.00;0.00;;;19.10;99.90;;;;;;7380035;19;20149;-72
2023/06/23 00:37:54;;;;;;;0.00;0.00;;;19.10;99.90;;;;;;7378413;19;20160;-73
2023/06/23 00:40:24;;;;;;;0.00;0.00;;;19.00;99.90;;;;;;7376794;19;20140;-73
2023/06/23 00:42:55;;;;;;;0.00;0.00;;;19.00;99.90;;;;;;7376565;19;20180;-73
2023/06/23 00:45:29;;;;;;;0.00;0.00;;;19.00;99.90;;;;;;7378947;19;20149;-73
2023/06/23 00:47:59;;;;;;;0.00;0.00;;;19.00;99.90;;;;;;7379613;19;20149;-72
2023/06/23 00:50:28;;;;;;;0.00;0.00;;;19.00;99.90;;;;;;7379141;19;20188;-74
2023/06/23 00:52:57;;;;;;;0.00;0.00;;;19.00;99.90;;;;;;7374838;19;20184;-72
2023/06/23 00:55:27;;;;;;;0.00;0.00;;;19.00;99.90;;;;;;7378038;19;20153;-72
2023/06/23 00:57:58;;;;;;;0.00;0.00;;;19.00;99.90;;;;;;7378603;19;20152;-71
2023/06/23 01:00:31;;;;;;;0.00;0.00;;;19.00;99.90;;;;;;7378056;19;20149;-73
2023/06/23 01:03:02;;;;;;;0.00;0.00;;;19.00;99.90;;;;;;7374774;19;20176;-71
2023/06/23 01:05:35;;;;;;;0.00;0.00;;;19.00;99.90;;;;;;7377562;19;20149;-72
2023/06/23 01:08:17;;;;;;;0.00;0.00;;;19.00;99.90;;;;;;7378814;19;20216;-71
2023/06/23 01:10:56;;;;;;;0.00;0.00;;;19.00;99.90;;;;;;7377528;19;20746;-72
2023/06/23 01:13:34;;;;;;;0.00;0.00;;;19.00;99.90;;;;;;7376635;19;20168;-72
2023/06/23 01:16:11;;;;;;;0.00;0.00;;;19.00;99.90;;;;;;7376582;19;20145;-73
2023/06/23 01:18:50;;;;;;;0.00;0.00;;;19.10;99.90;;;;;;7379664;19;20185;-73
2023/06/23 01:21:25;;;;;;;0.00;0.00;;;19.10;99.90;;;;;;7375064;19;20199;-72
2023/06/23 01:24:24;;;;;;;0.00;0.00;;;19.10;99.90;;;;;;7376788;19;20148;-69
2023/06/23 01:27:14;;;;;;;0.00;0.00;;;19.10;99.90;;;;;;7378556;19;20155;-72
2023/06/23 01:29:50;;;;;;;0.00;0.00;;;19.10;99.90;;;;;;7378031;19;20616;-71
2023/06/23 01:32:26;;;;;;;0.00;0.00;;;19.10;99.90;;;;;;7374391;19;20172;-71
2023/06/23 01:34:59;;;;;;;0.00;0.00;;;19.10;99.90;;;;;;7376876;19;20156;-72
2023/06/23 01:37:32;;;;;;;0.00;0.00;;;19.10;99.90;;;;;;7376340;19;20148;-72
2023/06/23 01:40:09;;;;;;;0.00;0.00;;;19.10;99.90;;;;;;7377931;19;20148;-72
2023/06/23 01:42:44;;;;;;;0.00;0.00;;;19.10;99.90;;;;;;7373006;19;20180;-71
2023/06/23 01:45:17;;;;;;;0.00;0.00;;;19.10;99.90;;;;;;7374832;19;20152;-71
2023/06/23 01:47:50;;;;;;;0.00;0.00;;;19.10;99.90;;;;;;7377374;19;20152;-73
2023/06/23 01:50:21;;;;;;;0.00;0.00;;;19.10;99.90;;;;;;7376995;19;20152;-72
2023/06/23 01:52:53;;;;;;;0.00;0.00;;;19.10;99.90;;;;;;7373627;19;20672;-73
2023/06/23 01:55:23;;;;;;;0.00;0.00;;;19.00;99.90;;;;;;7375530;19;20185;-72
2023/06/23 01:57:55;;;;;;;0.00;0.00;;;19.00;99.90;;;;;;7377513;19;20170;-72
2023/06/23 02:00:27;;;;;;;0.00;0.00;;;19.00;99.90;;;;;;7377139;19;20148;-73
2023/06/23 02:02:57;;;;;;;0.00;0.00;;;19.00;99.90;;;;;;7375139;19;20163;-71
2023/06/23 02:05:28;;;;;;;0.00;0.00;;;19.00;99.90;;;;;;7375703;19;20148;-73
2023/06/23 02:07:59;;;;;;;0.00;0.00;;;18.90;99.90;;;;;;7376740;19;20144;-72
2023/06/23 02:10:29;;;;;;;0.00;0.00;;;18.90;99.90;;;;;;7376766;19;20168;-72
2023/06/23 02:13:00;;;;;;;0.00;0.00;;;18.90;99.90;;;;;;7372239;19;20660;-71
2023/06/23 02:15:32;;;;;;;0.00;0.00;;;18.90;99.90;;;;;;7376248;19;20149;-72
2023/06/23 02:18:03;;;;;;;0.00;0.00;;;18.90;99.90;;;;;;7377252;19;20148;-72
2023/06/23 02:20:33;;;;;;;0.00;0.00;;;18.90;99.90;;;;;;7377542;19;20156;-71
2023/06/23 02:23:03;;;;;;;0.00;0.00;;;18.90;99.90;;;;;;7372518;19;20180;-70
2023/06/23 02:25:32;;;;;;;0.00;0.00;;;18.90;99.90;;;;;;7376657;19;20144;-70
2023/06/23 02:28:02;;;;;;;0.00;0.00;;;18.90;99.90;;;;;;7376240;19;20141;-73
2023/06/23 02:30:34;;;;;;;0.00;0.00;;;18.90;99.90;;;;;;7376499;19;20180;-73
2023/06/23 02:33:03;;;;;;;0.00;0.00;;;18.90;99.90;;;;;;7373792;19;20184;-71
2023/06/23 02:35:33;;;;;;;0.00;0.00;;;18.90;99.90;;;;;;7376180;19;20145;-72
2023/06/23 02:38:06;;;;;;;0.00;0.00;;;18.90;99.90;;;;;;7376586;19;20212;-72
2023/06/23 02:40:38;;;;;;;0.00;0.00;;;18.90;99.90;;;;;;7374720;19;20540;-72
2023/06/23 02:43:12;;;;;;;0.00;0.00;;;18.90;99.90;;;;;;7375584;19;20181;-71
2023/06/23 02:45:48;;;;;;;0.00;0.00;;;18.90;99.90;;;;;;7380218;19;20148;-73
2023/06/23 02:48:20;;;;;;;0.00;0.00;;;18.90;99.90;;;;;;7383158;19;20156;-74
2023/06/23 02:50:51;;;;;;;0.00;0.00;;;18.90;99.90;;;;;;7382351;19;20604;-73
2023/06/23 02:53:24;;;;;;;0.00;0.00;;;19.00;99.90;;;;;;7381508;19;20168;-73
2023/06/23 02:56:00;;;;;;;0.00;0.00;;;18.90;99.90;;;;;;7379991;19;20153;-72
2023/06/23 02:58:31;;;;;;;0.00;0.00;;;19.00;99.90;;;;;;7383118;19;20149;-73
2023/06/23 03:01:04;;;;;;;0.00;0.00;;;18.90;99.90;;;;;;7378796;19;20175;-72
2023/06/23 03:03:35;;;;;;;0.00;0.00;;;19.00;99.90;;;;;;7382582;19;20645;-72
2023/06/23 03:06:04;;;;;;;0.00;0.00;;;19.00;99.90;;;;;;7381884;19;20144;-71
2023/06/23 03:08:33;;;;;;;0.00;0.00;;;19.00;99.90;;;;;;7383009;19;20152;-72
2023/06/23 03:11:01;;;;;;;0.00;0.00;;;19.10;99.90;;;;;;7381443;19;20153;-71
2023/06/23 03:13:30;;;;;;;0.00;0.00;;;19.10;99.90;;;;;;7378542;19;20168;-72
2023/06/23 03:16:06;;;;;;;0.00;0.00;;;19.10;99.90;;;;;;7380623;19;20152;-72
2023/06/23 03:18:38;;;;;;;0.00;0.00;;;19.10;99.90;;;;;;7383026;19;20243;-72
2023/06/23 03:21:12;;;;;;;0.00;0.00;;;19.10;99.90;;;;;;7379248;19;20149;-72
2023/06/23 03:23:41;;;;;;;0.00;0.00;;;19.00;99.90;;;;;;7379206;19;20165;-71
2023/06/23 03:26:13;;;;;;;0.00;0.00;;;19.00;99.90;;;;;;7379550;19;20180;-72
2023/06/23 03:28:44;;;;;;;0.00;0.00;;;19.00;99.90;;;;;;7381912;19;20157;-73
2023/06/23 03:31:18;;;;;;;0.00;0.00;;;19.00;99.90;;;;;;7379558;19;20140;-72
2023/06/23 03:33:50;;;;;;;0.00;0.00;;;19.00;99.90;;;;;;7381609;19;20174;-71
2023/06/23 03:36:23;;;;;;;0.00;0.00;;;19.00;99.90;;;;;;7379591;19;20153;-71
2023/06/23 03:38:59;;;;;;;0.00;0.00;;;19.00;99.90;;;;;;7381796;19;20226;-72
2023/06/23 03:41:31;;;;;;;0.00;0.00;;;19.00;99.90;;;;;;7377603;19;20659;-73
2023/06/23 03:44:03;;;;;;;0.00;0.00;;;19.00;99.90;;;;;;7379258;19;20152;-71
2023/06/23 03:46:47;;;;;;;0.00;0.00;;;19.00;99.90;;;;;;7380807;19;20723;-72
2023/06/23 03:49:17;;;;;;;0.00;0.00;;;19.00;99.90;;;;;;7380791;19;20148;-72
2023/06/23 03:51:50;;;;;;;0.00;0.00;;;19.00;99.90;;;;;;7380024;19;20184;-73
2023/06/23 03:54:20;;;;;;;0.00;0.00;;;19.00;99.90;;;;;;7379023;19;20149;-73
2023/06/23 03:56:51;;;;;;;0.00;0.00;;;19.00;99.90;;;;;;7380950;19;20153;-73
2023/06/23 03:59:22;;;;;;;0.00;0.00;;;19.00;99.90;;;;;;7378841;19;20216;-70
2023/06/23 04:01:56;;;;;;;0.00;0.00;;;19.00;99.90;;;;;;7380004;19;20197;-72
2023/06/23 04:04:26;;;;;;;0.00;0.00;;;19.00;99.90;;;;;;7377775;19;20133;-70
2023/06/23 04:06:55;;;;;;;0.00;0.00;;;19.00;99.90;;;;;;7380730;19;20176;-72
2023/06/23 04:09:27;;;;;;;0.00;0.00;;;19.00;99.90;;;;;;7379523;19;20179;-72
2023/06/23 04:11:59;;;;;;;0.00;0.00;;;18.90;99.90;;;;;;7379705;19;20177;-72
2023/06/23 04:14:30;;;;;;;0.00;0.00;;;18.90;99.90;;;;;;7378956;19;20160;-72
2023/06/23 04:17:05;;;;;;;0.00;0.00;;;18.90;99.90;;;;;;7379678;19;20153;-74
2023/06/23 04:19:36;;;;;;;0.00;0.00;;;18.90;99.90;;;;;;7378536;19;20144;-75
2023/06/23 04:22:07;;;;;;;0.00;0.00;;;18.90;99.90;;;;;;7375402;19;20180;-73
2023/06/23 04:24:38;;;;;;;0.00;0.00;;;18.90;99.90;;;;;;7378448;19;20164;-74
2023/06/23 04:27:09;;;;;;;0.00;0.00;;;18.90;99.90;;;;;;7380334;19;20152;-75
2023/06/23 04:29:41;;;;;;;0.00;0.00;;;18.90;99.90;;;;;;7379670;19;20163;-74
2023/06/23 04:32:14;;;;;;;0.00;0.00;;;18.80;99.90;;;;;;7376925;19;20214;-73
2023/06/23 04:34:42;;;;;;;0.00;0.00;;;18.80;99.90;;;;;;7378850;19;20214;-74
2023/06/23 04:37:16;;;;;;;0.00;0.00;;;18.80;99.90;;;;;;7377822;19;20153;-74
2023/06/23 04:39:50;;;;;;;0.00;0.00;;;18.70;99.90;;;;;;7379515;19;20169;-73
2023/06/23 04:42:26;;;;;;;0.00;0.00;;;18.60;99.90;;;;;;7374424;19;20181;-76
2023/06/23 04:44:57;;;;;;;0.00;0.00;;;18.50;99.90;;;;;;7379901;19;20144;-77
2023/06/23 04:47:34;;;;;;;0.00;0.00;;;18.40;99.90;;;;;;7380882;19;20608;-75
2023/06/23 04:50:08;;;;;;;0.00;0.00;;;18.40;99.90;;;;;;7379663;19;20144;-75
2023/06/23 04:52:38;;;;;;;0.00;0.00;;;18.30;99.90;;;;;;7376134;19;20177;-76
2023/06/23 04:55:10;;;;;;;0.00;0.00;;;18.20;99.90;;;;;;7379221;19;20176;-77
2023/06/23 04:57:42;;;;;;;0.00;0.00;;;18.20;99.90;;;;;;7378604;19;20161;-76
2023/06/23 05:00:14;;;;;;;0.00;0.00;;;18.10;99.90;;;;;;7379405;19;20153;-74
2023/06/23 05:02:48;;;;;;;0.00;0.00;;;18.10;99.90;;;;;;7376771;19;20226;-74
2023/06/23 05:05:20;;;;;;;0.00;0.00;;;;;;;;;;7376250;19;20155;-76
2023/06/23 05:07:50;;;;;;;0.00;0.00;;;;;;;;;;7380373;19;20162;-74
2023/06/23 05:10:20;;;;;;;0.00;0.00;;;;;;;;;;7378832;19;20160;-74
2023/06/23 05:12:50;;;;;;;0.00;0.00;;;17.90;99.90;;;;;;7376337;19;20188;-75
2023/06/23 05:15:21;;;;;;;0.00;0.00;;;18.00;99.90;;;;;;7377933;19;20148;-74
2023/06/23 05:17:56;;;;;;;0.00;0.00;;;18.00;99.90;;;;;;7377036;19;20597;-78
2023/06/23 05:20:27;;;;;;;0.00;0.00;;;17.90;99.90;;;;;;7374082;19;20144;-77
2023/06/23 05:23:02;;;;;;;0.00;0.00;;;17.90;99.90;;;;;;7373838;19;20188;-75
2023/06/23 05:25:32;;;;;;;0.00;0.00;;;17.80;99.90;;;;;;7378148;19;20148;-75
2023/06/23 05:28:03;;;;;;;0.00;0.00;;;17.70;99.90;;;;;;7377540;19;20168;-76
2023/06/23 05:30:35;;;;;;;0.00;0.00;;;17.70;99.90;;;;;;7377056;19;20153;-74
2023/06/23 05:33:09;;;;;;;0.00;0.00;;;17.70;99.90;;;;;;7374642;19;20180;-77
2023/06/23 05:35:40;;;;;;;0.00;0.00;;;17.60;99.90;;;;;;7376410;19;20148;-76
2023/06/23 05:38:10;;;;;;;0.00;0.00;;;17.60;99.90;;;;;;7375868;19;20152;-74
2023/06/23 05:40:39;;;;;;;0.00;0.00;;;17.60;99.90;;;;;;7375153;19;20156;-75
2023/06/23 05:43:08;;;;;;;0.00;0.00;;;17.60;99.90;;;;;;7370951;19;20196;-76
2023/06/23 05:45:36;;;;;;;0.00;0.00;;;17.60;99.90;;;;;;7372513;19;20145;-79
2023/06/23 05:48:15;;;;;;;0.00;0.00;;;17.60;99.90;;;;;;7372898;19;20152;-77
2023/06/23 05:50:49;;;;;;;0.00;0.00;;;17.60;99.90;;;;;;7372289;19;20152;-77
2023/06/23 05:53:21;;;;;;;0.00;0.00;;;17.60;99.90;;;;;;7373909;19;20184;-78
2023/06/23 05:56:00;;;;;;;0.00;0.00;;;17.60;99.90;;;;;;7376068;19;20526;-77
2023/06/23 05:58:34;;;;;;;0.00;0.00;;;17.60;99.90;;;;;;7374771;19;20152;-76
2023/06/23 06:01:10;;;;;;;0.00;0.00;;;17.60;99.90;;;;;;7373884;19;20162;-78
2023/06/23 06:03:45;;;;;;;0.00;0.00;;;17.60;99.90;;;;;;7373466;19;20190;-80
2023/06/23 06:06:15;;;;;;;0.00;0.00;;;17.60;99.90;;;;;;7375975;19;20152;-79
2023/06/23 06:08:45;;;;;;;0.00;0.00;;;17.60;99.90;;;;;;7377471;19;20149;-76
2023/06/23 06:11:16;;;;;;;0.00;0.00;;;17.60;99.90;;;;;;7374680;19;20156;-77
2023/06/23 06:13:47;;;;;;;0.00;0.00;;;17.60;99.90;;;;;;7375401;19;20144;-77
2023/06/23 06:16:17;;;;;;;0.00;0.00;;;;;;;;;;7374857;19;20632;-76
2023/06/23 06:18:52;;;;;;;0.00;0.00;;;17.60;99.90;;;;;;7379508;19;20497;-77
2023/06/23 06:21:23;;;;;;;0.00;0.00;;;17.60;99.90;;;;;;7382525;19;20179;-76
2023/06/23 06:23:54;;;;;;;0.00;0.00;;;17.60;99.90;;;;;;7383215;19;20600;-75
2023/06/23 06:26:25;;;;;;;0.00;0.00;;;17.60;99.90;;;;;;7382709;19;20172;-76
2023/06/23 06:28:58;;;;;;;0.00;0.00;;;17.60;99.90;;;;;;7383037;19;20164;-77
2023/06/23 06:31:29;;;;;;;0.00;0.00;;;17.50;99.90;;;;;;7381626;19;20256;-75
2023/06/23 06:34:02;;;;;;;0.00;0.00;;;17.50;99.90;;;;;;7381238;19;20156;-75
2023/06/23 06:36:34;;;;;;;0.00;0.00;;;17.50;99.90;;;;;;7383238;19;20173;-74
2023/06/23 06:39:04;;;;;;;0.00;0.00;;;17.50;99.90;;;;;;7380399;19;20178;-74
2023/06/23 06:41:33;;;;;;;0.00;0.00;;;17.50;99.90;;;;;;7380771;19;20188;-73
2023/06/23 06:44:03;;;;;;;0.00;0.00;;;17.50;99.90;;;;;;7381972;19;20212;-74
2023/06/23 06:46:32;;;;;;;0.00;0.00;;;17.50;99.90;;;;;;7382944;19;20157;-76
2023/06/23 06:49:04;;;;;;;0.00;0.00;;;17.50;99.90;;;;;;7381911;19;20157;-75
2023/06/23 06:51:34;;;;;;;0.00;0.00;;;17.50;99.90;;;;;;7380886;19;20180;-75
2023/06/23 06:54:03;;;;;;;0.00;0.00;;;17.40;99.90;;;;;;7381117;19;20157;-74
2023/06/23 06:56:32;;;;;;;0.00;0.00;;;17.50;99.90;;;;;;7381835;19;20157;-75
2023/06/23 06:59:01;;;;;;;0.00;0.00;;;17.40;99.90;;;;;;7380981;19;20157;-76
2023/06/23 07:01:31;;;;;;;0.00;0.00;;;17.40;99.90;;;;;;7380670;19;20185;-73
2023/06/23 07:04:00;;;;;;;0.00;0.00;;;17.40;99.90;;;;;;7382340;19;20719;-75
2023/06/23 07:06:31;;;;;;;0.00;0.00;;;17.30;99.90;;;;;;7380566;19;20156;-76
2023/06/23 07:09:00;;;;;;;0.00;0.00;;;17.30;99.90;;;;;;7383610;19;20153;-77
2023/06/23 07:11:30;;;;;;;0.00;0.00;;;17.30;99.90;;;;;;7378426;19;20195;-78
2023/06/23 07:13:59;;;;;;;0.00;0.00;;;17.30;99.90;;;;;;7377662;19;20236;-79
2023/06/23 07:16:33;;;;;;;0.00;0.00;;;17.30;99.90;;;;;;7378212;19;20668;-80
2023/06/23 07:19:02;;;;;;;0.00;0.00;;;17.30;99.90;;;;;;7376471;19;20156;-78
2023/06/23 07:21:33;;;;;;;0.00;0.00;;;17.30;99.90;;;;;;7378142;19;20204;-77
2023/06/23 07:24:02;;;;;;;0.00;0.00;;;17.30;99.90;;;;;;7378781;19;20149;-78
2023/06/23 07:26:31;;;;;;;0.00;0.00;;;17.30;99.90;;;;;;7380322;19;20148;-75
2023/06/23 07:28:59;;;;;;;0.00;0.00;;;17.30;99.90;;;;;;7378354;19;20232;-77
2023/06/23 07:31:28;;;;;;;0.00;0.00;;;17.30;99.90;;;;;;7378064;19;20185;-75
2023/06/23 07:33:57;;;;;;;0.00;0.00;;;17.20;99.90;;;;;;7378091;19;20152;-76
2023/06/23 07:36:25;;;;;;;0.00;0.00;;;17.10;99.90;;;;;;7378313;19;20162;-76
2023/06/23 07:38:57;;;;;;;0.00;0.00;;;17.20;99.90;;;;;;7371656;19;20153;-80
2023/06/23 07:41:26;;;;;;;0.00;0.00;;;17.20;99.90;;;;;;7368509;19;20695;-78
2023/06/23 07:43:55;;;;;;;0.00;0.00;;;17.20;99.90;;;;;;7378112;19;20262;-79
2023/06/23 07:46:24;;;;;;;0.00;0.00;;;17.00;99.90;;;;;;7374686;19;20157;-78
2023/06/23 07:48:52;;;;;;;0.00;0.00;;;17.10;99.90;;;;;;7375821;19;20153;-78
2023/06/23 07:51:21;;;;;;;0.00;0.00;;;17.00;99.90;;;;;;7377823;19;20184;-76
2023/06/23 07:53:50;;;;;;;0.00;0.00;;;17.00;99.90;;;;;;7377377;19;20165;-71
2023/06/23 07:56:21;;;;;;;0.00;0.00;;;17.00;99.90;;;;;;7377105;19;20186;-74
2023/06/23 07:58:50;;;;;;;0.00;0.00;;;17.00;99.90;;;;;;7376882;19;20153;-71
2023/06/23 08:01:18;;;;;;;0.00;0.00;;;17.00;99.90;;;;;;7374933;19;20214;-74
2023/06/23 08:03:48;;;;;;;0.00;0.00;;;17.00;99.90;;;;;;7376697;19;20145;-74
2023/06/23 08:06:23;;;;;;;0.00;0.00;;;16.90;99.90;;;;;;7376879;19;20188;-78
2023/06/23 08:08:52;;;;;;;0.00;0.00;;;17.00;99.90;;;;;;7378015;19;20236;-76
2023/06/23 08:11:23;;;;;;;0.00;0.00;;;16.90;99.90;;;;;;7234496;19;2792624;-78
2023/06/23 08:13:53;;;;;;;0.00;0.00;;;17.00;99.90;;;;;;7380073;19;20165;-76
2023/06/23 08:16:22;;;;;;;0.00;0.00;;;16.90;99.90;;;;;;7380187;19;20166;-77
2023/06/23 08:18:52;;;;;;;0.00;0.00;;;16.90;99.90;;;;;;7379637;19;20149;-76
2023/06/23 08:21:21;;;;;;;0.00;0.00;;;16.90;99.90;;;;;;7379682;19;20204;-75
2023/06/23 08:23:50;;;;;;;0.00;0.00;;;16.90;99.90;;;;;;7377995;19;20182;-77
2023/06/23 08:26:19;;;;;;;0.00;0.00;;;16.90;99.90;;;;;;7379488;19;20658;-76
2023/06/23 08:28:51;;;;;;;0.00;0.00;;;16.90;99.90;;;;;;7379061;19;20149;-76
2023/06/23 08:31:19;;;;;;;0.00;0.00;;;16.90;99.90;;;;;;7379084;19;20213;-77
2023/06/23 08:33:48;;;;;;;0.00;0.00;;;16.70;99.90;;;;;;7377955;19;20152;-74
2023/06/23 08:36:17;;;;;;;0.00;0.00;;;16.80;99.90;;;;;;7380209;19;20144;-77
2023/06/23 08:38:48;;;;;;;0.00;0.00;;;;;;;;;;7378165;19;20149;-76
2023/06/23 08:41:18;;;;;;;0.00;0.00;;;;;;;;;;7376219;19;20217;-75
2023/06/23 08:43:49;;;;;;;0.00;0.00;;;;;;;;;;7378568;19;20214;-77
2023/06/23 08:46:25;;;;;;;0.00;0.00;;;17.20;99.90;;;;;;7378578;19;20148;-77
2023/06/23 08:48:54;;;;;;;0.00;0.00;;;;;;;;;;7382030;19;20144;-79
2023/06/23 08:51:24;;;;;;;0.00;0.00;;;;;;;;;;7378899;19;20199;-78
2023/06/23 08:53:53;;;;;;;0.00;0.00;;;;;;;;;;7381111;19;20156;-77
2023/06/23 08:56:22;;;;;;;0.00;0.00;;;;;;;;;;7380127;19;20156;-78
2023/06/23 08:58:52;;;;;;;0.00;0.00;;;16.50;99.90;;;;;;7380928;19;20145;-80
2023/06/23 09:01:23;;;;;;;0.00;0.00;;;;;;;;;;7372274;19;20209;-78
2023/06/23 09:03:53;;;;;;;0.00;0.00;;;;;;;;;;7370248;19;20149;-77
2023/06/23 09:06:23;;;;;;;0.00;0.00;;;;;;;;;;7371041;19;21006;-74
2023/06/23 09:08:53;;;;;;;0.00;0.00;;;;;;;;;;7370420;19;20152;-79
2023/06/23 09:11:22;;;;;;;0.00;0.00;;;;;;;;;;7368734;19;20212;-81
2023/06/23 09:13:54;;;;;;;0.00;0.00;;;16.50;99.90;;;;;;7373008;19;20157;-81
2023/06/23 09:16:26;;;;;;;0.00;0.00;;;16.30;99.90;;;;;;7373989;19;20137;-75
2023/06/23 09:18:55;;;;;;;0.00;0.00;;;16.30;99.90;;;;;;7369687;19;20153;-77
2023/06/23 09:21:25;;;;;;;0.00;0.00;;;;;;;;;;7368086;19;20184;-78
2023/06/23 09:24:04;;;;;;;0.00;0.00;;;;;;;;;;7370703;19;20149;-78
2023/06/23 09:26:33;;;;;;;0.00;0.00;;;;;;;;;;7369765;19;20148;-75
2023/06/23 09:29:20;;;;;;;0.00;0.00;;;18.30;99.90;;;;;;7370437;19;20177;-75
2023/06/23 09:31:53;;;;;;;0.00;0.00;;;16.20;99.90;;;;;;7368941;19;20183;-77
2023/06/23 09:34:24;;;;;;;0.00;0.00;;;16.20;99.90;;;;;;7368883;19;20160;-77
2023/06/23 09:36:53;;;;;;;0.00;0.00;;;16.20;99.90;;;;;;7369430;19;20155;-78
2023/06/23 09:39:23;;;;;;;0.00;0.00;;;16.10;99.90;;;;;;7368883;19;20190;-77
2023/06/23 09:41:57;;;;;;;0.00;0.00;;;16.10;99.90;;;;;;7368867;19;20731;-80
2023/06/23 09:44:35;;;;;;;0.00;0.00;;;16.10;99.90;;;;;;7368477;19;20148;-77
2023/06/23 09:47:07;;;;;;;0.00;0.00;;;16.00;99.90;;;;;;7369171;19;20232;-75
2023/06/23 09:49:40;;;;;;;0.00;0.00;;;16.00;99.90;;;;;;7367316;19;20145;-77
2023/06/23 09:52:11;;;;;;;0.00;0.00;;;16.00;99.90;;;;;;7362864;19;20697;-77
2023/06/23 09:54:41;;;;;;;0.00;0.00;;;15.80;99.90;;;;;;7367602;19;20158;-75
2023/06/23 09:57:11;;;;;;;0.00;0.00;;;15.80;99.90;;;;;;7367473;19;20160;-77
2023/06/23 09:59:41;;;;;;;0.00;0.00;;;15.70;99.90;;;;;;7366245;19;20152;-76
2023/06/23 10:02:22;;;;;;;0.00;0.00;;;15.80;99.90;;;;;;7363645;19;20192;-79
2023/06/23 10:04:51;;;;;;;0.00;0.00;;;15.60;99.90;;;;;;7366453;19;20268;-76
2023/06/23 10:07:21;;;;;;;0.00;0.00;;;15.60;99.90;;;;;;7366668;19;20257;-76
2023/06/23 10:09:54;;;;;;;0.00;0.00;;;15.60;99.90;;;;;;7368187;19;20167;-78
2023/06/23 10:12:26;;;;;;;0.00;0.00;;;15.50;99.90;;;;;;7365296;19;20184;-78
2023/06/23 10:14:58;;;;;;;0.00;0.00;;;15.50;99.90;;;;;;7366569;19;20145;-79
2023/06/23 10:17:29;;;;;;;0.00;0.00;;;15.40;99.90;;;;;;7369833;19;20152;-77
2023/06/23 10:19:58;;;;;;;0.00;0.00;;;;;;;;;;7367001;19;20153;-77
2023/06/23 10:22:29;;;;;;;0.00;0.00;;;15.70;99.90;;;;;;7365024;19;20176;-75
2023/06/23 10:24:59;;;;;;;0.00;0.00;;;15.60;99.90;;;;;;7369103;19;20220;-78
2023/06/23 10:27:30;;;;;;;0.00;0.00;;;15.30;99.90;;;;;;7368808;19;20156;-79
2023/06/23 10:29:59;;;;;;;0.00;0.00;;;;;;;;;;7368355;19;20160;-82
2023/06/23 10:32:32;;;;;;;0.00;0.00;;;;;;;;;;7366333;19;20244;-79
2023/06/23 10:35:02;;;;;;;0.00;0.00;;;;;;;;;;7368920;19;20153;-77
2023/06/23 10:37:31;;;;;;;0.03;0.03;;;;;;;;;;7369008;19;20153;-77
2023/06/23 10:40:00;;;;;;;0.00;0.00;;;;;;;;;;7366175;19;20168;-75
2023/06/23 10:42:31;;;;;;;0.00;0.00;;;;;;;;;;7363786;19;20180;-76
2023/06/23 10:45:01;;;;;;;0.00;0.00;;;;;;;;;;7366656;19;20145;-74
2023/06/23 10:47:33;;;;;;;0.00;0.00;;;;;;;;;;7365850;19;20153;-76
2023/06/23 10:50:02;;;;;;;0.00;0.00;;;;;;;;;;7366242;19;20149;-75
2023/06/23 10:52:31;;;;;;;0.00;0.00;;;;;;;;;;7363817;19;20260;-78
2023/06/23 10:55:01;;;;;;;0.00;0.00;;;;;;;;;;7367781;19;20149;-78
2023/06/23 10:57:30;;;;;;;0.00;0.00;;;;;;;;;;7366742;19;20157;-76
2023/06/23 11:00:05;;;;;;;0.00;0.00;;;;;;;;;;7365122;19;20149;-77
2023/06/23 11:02:53;;;;;;;0.00;0.00;;;;;;;;;;7359760;19;20656;-75
2023/06/23 11:05:23;;;;;;;0.00;0.00;;;;;;;;;;7372525;19;20165;-78
2023/06/23 11:08:04;;;;;;;0.00;0.00;;;;;;;;;;7373890;19;20185;-78
2023/06/23 11:10:48;;;;;;;0.00;0.00;;;;;;;;;;7374121;19;20164;-76
2023/06/23 11:13:17;;;;;;;0.00;0.00;;;;;;;;;;7370233;19;20244;-77
2023/06/23 11:15:53;;;;;;;0.00;0.00;;;;;;;;;;7371301;19;20153;-77
2023/06/23 11:18:26;;;;;;;0.00;0.00;;;;;;;;;;7373032;19;20152;-76
2023/06/23 11:20:55;;;;;;;0.00;0.00;;;;;;;;;;7369341;19;20161;-78
2023/06/23 11:23:24;;;;;;;0.00;0.00;;;;;;;;;;7373217;19;20160;-76
2023/06/23 11:25:54;;;;;;;0.00;0.00;;;;;;;;;;7372112;19;20149;-75
2023/06/23 11:28:28;;;;;;;0.00;0.00;;;;;;;;;;7372396;19;20161;-76
2023/06/23 11:30:57;;;;;;;0.00;0.00;;;;;;;;;;7371887;19;20148;-75
2023/06/23 11:33:32;;;;;;;0.00;0.00;;;;;;;;;;7371562;19;20169;-76
2023/06/23 11:36:04;;;;;;;0.00;0.00;;;;;;;;;;7373750;19;20148;-76
2023/06/23 11:38:33;;;;;;;0.00;0.00;;;;;;;;;;7372228;19;20156;-77
2023/06/23 11:41:03;;;;;;;0.00;0.00;;;;;;;;;;7372514;19;20149;-76
2023/06/23 11:43:34;;;;;;;0.00;0.00;;;;;;;;;;7371274;19;20153;-77
2023/06/23 11:46:06;;;;;;;0.00;0.00;;;;;;;;;;7372974;19;20153;-76
2023/06/23 11:48:39;;;;;;;0.00;0.00;;;;;;;;;;7372444;19;20152;-77
2023/06/23 11:51:09;;;;;;;0.00;0.00;;;;;;;;;;7371236;19;20190;-77
2023/06/23 11:53:40;;;;;;;0.00;0.00;;;;;;;;;;7370232;19;20164;-74
2023/06/23 11:56:09;;;;;;;0.00;0.00;;;;;;;;;;7371285;19;20738;-76
2023/06/23 11:58:38;;;;;;;0.00;0.00;;;;;;;;;;7371357;19;20170;-75
2023/06/23 12:01:09;;;;;;;0.00;0.00;;;;;;;;;;7369172;19;20232;-75
2023/06/23 12:03:40;;;;;;;0.00;0.00;;;;;;;;;;7370884;19;20149;-74
2023/06/23 12:06:15;;;;;;;0.00;0.00;;;;;;;;;;7372316;19;20156;-75
2023/06/23 12:08:44;;;;;;;0.00;0.00;;;;;;;;;;7371125;19;20148;-74
2023/06/23 12:11:13;;;;;;;0.00;0.00;;;;;;;;;;7370827;19;20173;-76
2023/06/23 12:13:42;;;;;;;0.00;0.00;;;;;;;;;;7367421;19;20157;-76
2023/06/23 12:16:11;;;;;;;0.00;0.00;;;;;;;;;;7367249;19;20153;-72
2023/06/23 12:18:48;;;;;;;0.00;0.00;;;;;;;;;;7369157;19;20161;-76
2023/06/23 12:21:18;;;;;;;0.00;0.00;;;;;;;;;;7368848;19;20192;-79
2023/06/23 12:23:47;;;;;;;0.00;0.00;;;;;;;;;;7371278;19;20180;-76
2023/06/23 12:26:16;;;;;;;0.00;0.00;;;;;;;;;;7369884;19;20156;-76
2023/06/23 12:28:45;;;;;;;0.00;0.00;;;;;;;;;;7369862;19;20256;-79
2023/06/23 12:31:14;;;;;;;0.00;0.00;;;;;;;;;;7369568;19;20156;-76
2023/06/23 12:33:43;;;;;;;0.00;0.00;;;;;;;;;;7368629;19;20161;-77
2023/06/23 12:36:18;;;;;;;0.00;0.00;;;;;;;;;;7370472;19;20153;-81
2023/06/23 12:38:55;;;;;;;0.00;0.00;;;;;;;;;;7370479;19;20148;-79
2023/06/23 12:41:26;;;;;;;0.00;0.00;;;;;;;;;;7368168;19;20176;-76
2023/06/23 12:43:56;;;;;;;0.00;0.00;;;;;;;;;;7369250;19;20156;-78
2023/06/23 12:46:26;;;;;;;0.00;0.00;;;;;;;;;;7371660;19;20157;-77
2023/06/23 12:48:55;;;;;;;0.00;0.00;;;;;;;;;;7369661;19;20220;-78
2023/06/23 12:51:36;;;;;;;0.00;0.00;;;;;;;;;;7369635;19;20180;-79
2023/06/23 12:54:06;;;;;;;0.00;0.00;;;;;;;;;;7370425;19;20152;-79
2023/06/23 12:56:35;;;;;;;0.00;0.00;;;;;;;;;;7370761;19;20200;-77
2023/06/23 12:59:04;;;;;;;0.00;0.00;;;;;;;;;;7370481;19;20236;-76
2023/06/23 13:01:33;;;;;;;0.00;0.00;;;;;;;;;;7367720;19;20172;-78
2023/06/23 13:04:02;;;;;;;0.00;0.00;;;;;;;;;;7369333;19;20148;-78
2023/06/23 13:06:31;;;;;;;0.00;0.00;;;;;;;;;;7369637;19;20173;-77
2023/06/23 13:09:03;;;;;;;0.00;0.00;;;;;;;;;;7369510;19;20157;-80
2023/06/23 13:11:33;;;;;;;0.00;0.00;;;;;;;;;;7369643;19;20180;-78
2023/06/23 13:14:02;;;;;;;0.00;0.00;;;;;;;;;;7365617;19;20156;-75
2023/06/23 13:16:32;;;;;;;0.00;0.00;;;;;;;;;;7369457;19;20160;-75
2023/06/23 13:19:01;;;;;;;0.00;0.00;;;;;;;;;;7369661;19;20156;-76
2023/06/23 13:21:30;;;;;;;0.00;0.00;;;;;;;;;;7367204;19;20225;-76
2023/06/23 13:23:59;;;;;;;0.00;0.00;;;;;;;;;;7368848;19;20169;-76
2023/06/23 13:26:31;;;;;;;0.00;0.00;;;;;;;;;;7367848;19;20153;-74
2023/06/23 13:29:00;;;;;;;0.00;0.00;;;;;;;;;;7368769;19;20569;-76
2023/06/23 13:31:29;;;;;;;0.00;0.00;;;;;;;;;;7368719;19;20255;-76
2023/06/23 13:33:58;;;;;;;0.00;0.00;;;;;;;;;;7367873;19;20144;-77
2023/06/23 13:36:27;;;;;;;0.00;0.00;;;;;;;;;;7371148;19;20165;-76
2023/06/23 13:38:56;;;;;;;0.00;0.00;;;;;;;;;;7367877;19;20156;-71